Time;durP1;ratioP1;P1;durP2;ratioP2;P2;SDS_P1;SDS_P2;PMS_P1;PMS_P2;Temp;Humidity;BMP_temperature;BMP_pressure;BME280_temperature;BME280_humidity;BME280_pressure;Samples;Min_cycle;Max_cycle;Signal;HPM_P1;HPM_P2
2023/01/21 00:00:33;;;;;;;;;8.50;8.50;;;;;7.79;64.47;101530.16;2074115;28;46804;-63
2023/01/21 00:01:33;;;;;;;;;9.00;7.50;;;;;7.79;64.05;101527.50;2066645;28;46231;-64
2023/01/21 00:02:34;;;;;;;;;8.75;8.75;;;;;7.79;64.31;101533.69;2084794;27;46289;-63
2023/01/21 00:03:34;;;;;;;;;10.75;9.75;;;;;7.79;64.19;101531.03;2072129;28;46661;-64
2023/01/21 00:04:36;;;;;;;;;12.25;9.25;;;;;7.81;64.20;101533.69;2062551;28;46646;-64
2023/01/21 00:05:37;;;;;;;;;8.40;5.40;;;;;7.81;64.04;101531.91;2071188;28;45726;-63
2023/01/21 00:06:37;;;;;;;;;10.50;8.50;;;;;7.82;64.35;101522.22;2071185;27;46722;-63
2023/01/21 00:07:37;;;;;;;;;11.75;11.75;;;;;7.82;64.43;101535.44;2070743;27;46881;-63
2023/01/21 00:08:38;;;;;;;;;11.25;9.50;;;;;7.83;64.28;101529.28;2062184;28;46675;-62
2023/01/21 00:09:38;;;;;;;;;10.75;10.75;;;;;7.84;64.39;101536.31;2062463;28;46512;-63
2023/01/21 00:10:38;;;;;;;;;15.25;12.75;;;;;7.84;64.41;101531.91;2070661;28;46695;-63
2023/01/21 00:11:39;;;;;;;;;13.00;11.50;;;;;7.86;64.49;101535.44;2061605;28;46634;-63
2023/01/21 00:12:39;;;;;;;;;11.50;10.25;;;;;7.86;64.35;101532.78;2063650;27;46716;-63
2023/01/21 00:13:41;;;;;;;;;11.75;11.00;;;;;7.87;64.63;101534.56;2064226;28;46852;-63
2023/01/21 00:14:42;;;;;;;;;15.60;12.60;;;;;7.86;64.51;101526.63;2064051;27;46030;-64
2023/01/21 00:15:42;;;;;;;;;6.50;6.50;;;;;7.85;64.68;101528.41;2063777;28;45690;-64
2023/01/21 00:16:42;;;;;;;;;6.50;6.50;;;;;7.85;64.85;101533.69;2064239;27;46630;-63
2023/01/21 00:17:43;;;;;;;;;11.25;9.75;;;;;7.84;64.71;101534.56;2067784;27;46150;-64
2023/01/21 00:18:46;;;;;;;;;7.00;7.00;;;;;7.83;64.61;101532.81;2065532;28;45584;-64
2023/01/21 00:19:46;;;;;;;;;9.80;9.00;;;;;7.83;64.92;101534.56;2065676;28;45050;-63
2023/01/21 00:20:46;;;;;;;;;13.00;10.00;;;;;7.82;64.84;101533.69;2070972;28;45490;-63
2023/01/21 00:21:47;;;;;;;;;10.25;9.25;;;;;7.83;64.89;101539.84;2066060;28;46184;-63
2023/01/21 00:22:47;;;;;;;;;12.50;10.25;;;;;7.84;64.87;101538.97;2068750;27;45589;-64
2023/01/21 00:23:47;;;;;;;;;11.50;9.75;;;;;7.83;64.79;101539.84;2061820;28;46806;-64
2023/01/21 00:24:48;;;;;;;;;9.75;8.00;;;;;7.84;64.92;101537.22;2062564;28;46401;-64
2023/01/21 00:25:48;;;;;;;;;3.00;3.00;;;;;7.84;65.06;101533.69;2066809;28;46565;-63
2023/01/21 00:26:48;;;;;;;;;11.00;10.75;;;;;7.85;64.91;101535.44;2062623;28;46674;-63
2023/01/21 00:27:49;;;;;;;;;9.75;9.75;;;;;7.84;64.94;101537.22;2064480;28;46529;-64
2023/01/21 00:28:49;;;;;;;;;9.75;9.50;;;;;7.85;65.27;101533.69;2065606;28;46651;-64
2023/01/21 00:29:49;;;;;;;;;10.00;10.00;;;;;7.85;64.97;101538.97;2070192;27;46579;-64
2023/01/21 00:30:50;;;;;;;;;11.75;10.00;;;;;7.86;64.94;101545.13;2070465;28;46852;-63
2023/01/21 00:31:50;;;;;;;;;7.25;7.25;;;;;7.86;65.04;101538.09;2070296;28;46426;-63
2023/01/21 00:32:51;;;;;;;;;11.25;10.00;;;;;7.86;64.84;101539.84;2067419;28;46246;-63
2023/01/21 00:33:51;;;;;;;;;10.75;10.75;;;;;7.85;65.02;101540.72;2071718;28;46373;-64
2023/01/21 00:34:52;;;;;;;;;10.75;10.00;;;;;7.85;65.09;101541.59;2071441;28;46002;-64
2023/01/21 00:36:02;;;;;;;;;9.00;9.00;;;;;7.85;65.16;101549.53;2067141;27;46135;-63
2023/01/21 00:37:02;;;;;;;;;12.80;11.20;;;;;7.85;65.14;101549.53;2064590;28;46139;-63
2023/01/21 00:38:03;;;;;;;;;10.25;10.00;;;;;7.85;64.98;101543.38;2065376;28;46582;-63
2023/01/21 00:39:03;;;;;;;;;11.00;10.25;;;;;7.84;64.85;101546.91;2063523;28;46175;-63
2023/01/21 00:40:05;;;;;;;;;9.75;9.25;;;;;7.83;64.78;101548.66;2064153;28;46885;-64
2023/01/21 00:41:08;;;;;;;;;8.40;8.40;;;;;7.82;64.80;101541.59;2065255;28;46172;-63
2023/01/21 00:42:10;;;;;;;;;7.20;7.20;;;;;7.82;65.30;101548.66;2064648;27;46916;-64
2023/01/21 00:43:10;;;;;;;;;8.40;8.00;;;;;7.81;65.11;101550.41;2062143;28;46180;-62
2023/01/21 00:44:10;;;;;;;;;8.00;8.00;;;;;7.80;64.99;101548.66;2061704;28;46710;-64
2023/01/21 00:45:11;;;;;;;;;10.00;8.00;;;;;7.80;64.92;101559.22;2070660;27;46671;-62
2023/01/21 00:46:12;;;;;;;;;8.75;8.75;;;;;7.79;65.04;101546.00;2070923;27;46091;-64
2023/01/21 00:47:12;;;;;;;;;5.40;5.40;;;;;7.78;64.88;101552.19;2071093;27;45214;-63
2023/01/21 00:48:13;;;;;;;;;7.75;6.25;;;;;7.76;64.96;101560.09;2070344;28;45616;-63
2023/01/21 00:49:13;;;;;;;;;6.25;5.00;;;;;7.77;65.08;101561.88;2076309;28;46950;-63
2023/01/21 00:50:13;;;;;;;;;10.00;6.00;;;;;7.76;65.01;101565.38;2081364;27;46651;-62
2023/01/21 00:51:14;;;;;;;;;8.75;6.25;;;;;7.76;64.94;101562.75;2108130;27;45980;-62
2023/01/21 00:52:14;;;;;;;;;3.00;2.50;;;;;7.77;65.01;101563.63;2074506;28;46316;-62
2023/01/21 00:53:14;;;;;;;;;11.00;9.25;;;;;7.75;65.05;101563.63;2080003;28;45786;-62
2023/01/21 00:54:15;;;;;;;;;5.00;5.00;;;;;7.75;65.19;101568.00;2074765;28;46872;-62
2023/01/21 00:55:15;;;;;;;;;9.25;6.00;;;;;7.75;64.93;101568.00;2069811;28;46491;-63
2023/01/21 00:56:15;;;;;;;;;5.25;4.75;;;;;7.74;65.09;101576.81;2091570;28;46117;-63
2023/01/21 00:57:16;;;;;;;;;5.50;5.00;;;;;7.74;64.98;101574.16;2085916;28;46822;-63
2023/01/21 00:58:16;;;;;;;;;6.00;5.25;;;;;7.73;65.17;101572.41;2062636;28;45922;-62
2023/01/21 00:59:16;;;;;;;;;5.00;5.00;;;;;7.72;65.23;101570.63;2063304;28;45788;-62
2023/01/21 01:00:18;;;;;;;;;6.00;6.00;;;;;7.73;65.25;101569.75;2067614;27;46322;-63
2023/01/21 01:01:20;;;;;;;;;8.00;5.20;;;;;7.72;65.44;101574.16;2063604;28;46992;-62
2023/01/21 01:02:20;;;;;;;;;7.00;5.80;;;;;7.72;65.12;101581.19;2066179;28;46409;-62
2023/01/21 01:03:20;;;;;;;;;11.00;6.50;;;;;7.71;65.24;101574.16;2088522;27;46520;-62
2023/01/21 01:04:21;;;;;;;;;8.50;7.00;;;;;7.70;65.27;101582.97;2067584;27;46480;-62
2023/01/21 01:05:22;;;;;;;;;6.20;6.20;;;;;7.70;65.08;101582.97;2077863;27;46928;-62
2023/01/21 01:06:23;;;;;;;;;6.25;6.25;;;;;7.68;65.11;101582.97;2074180;28;46299;-63
2023/01/21 01:07:23;;;;;;;;;4.20;4.20;;;;;7.69;65.36;101571.50;2064269;28;46506;-63
2023/01/21 01:08:23;;;;;;;;;7.75;6.50;;;;;7.68;65.24;101581.19;2073515;28;46339;-63
2023/01/21 01:09:24;;;;;;;;;9.25;5.25;;;;;7.68;65.31;101575.91;2061371;28;46058;-64
2023/01/21 01:10:24;;;;;;;;;4.50;4.50;;;;;7.68;65.53;101582.97;2067237;28;46284;-62
2023/01/21 01:11:26;;;;;;;;;5.00;5.00;;;;;7.66;65.17;101580.31;2084069;27;46402;-62
2023/01/21 01:12:27;;;;;;;;;5.60;5.60;;;;;7.66;65.25;101582.06;2072222;27;46390;-63
2023/01/21 01:13:28;;;;;;;;;8.00;6.80;;;;;7.66;65.72;101579.44;2072847;27;46541;-63
2023/01/21 01:14:29;;;;;;;;;8.50;8.50;;;;;7.65;65.24;101580.31;2077316;27;45130;-63
2023/01/21 01:15:29;;;;;;;;;6.50;6.50;;;;;7.65;65.30;101580.31;2082633;27;46339;-63
2023/01/21 01:16:30;;;;;;;;;5.75;5.50;;;;;7.64;65.50;101583.84;2083437;28;46577;-63
2023/01/21 01:17:30;;;;;;;;;6.00;6.00;;;;;7.61;65.36;101584.69;2060102;28;46549;-63
2023/01/21 01:18:33;;;;;;;;;6.50;6.50;;;;;7.61;65.38;101584.69;2080622;27;46648;-64
2023/01/21 01:19:34;;;;;;;;;5.40;5.40;;;;;7.60;65.22;101576.75;2080509;27;46545;-63
2023/01/21 01:20:34;;;;;;;;;6.75;5.00;;;;;7.59;65.32;101575.88;2074899;27;46355;-64
2023/01/21 01:21:34;;;;;;;;;7.50;7.50;;;;;7.58;65.47;101579.38;2078827;27;46659;-64
2023/01/21 01:22:35;;;;;;;;;6.25;6.25;;;;;7.59;65.37;101578.50;2075452;27;46718;-63
2023/01/21 01:23:35;;;;;;;;;9.75;7.25;;;;;7.60;65.28;101589.97;2080486;27;46359;-63
2023/01/21 01:24:35;;;;;;;;;8.00;6.75;;;;;7.60;65.17;101589.97;2078563;28;46102;-61
2023/01/21 01:25:36;;;;;;;;;9.75;9.75;;;;;7.59;65.31;101589.06;2105177;27;46379;-62
2023/01/21 01:26:37;;;;;;;;;12.00;9.00;;;;;7.60;65.18;101595.25;2105236;27;47041;-62
2023/01/21 01:27:37;;;;;;;;;9.75;9.75;;;;;7.58;65.10;101594.34;2083381;27;46408;-59
2023/01/21 01:28:38;;;;;;;;;11.00;8.75;;;;;7.57;65.20;101603.16;2074348;27;46286;-63
2023/01/21 01:29:38;;;;;;;;;9.00;7.00;;;;;7.57;65.19;101605.81;2084934;27;46175;-63
2023/01/21 01:30:39;;;;;;;;;9.25;8.50;;;;;7.56;65.21;101602.28;2075668;27;46240;-63
2023/01/21 01:31:39;;;;;;;;;8.50;8.50;;;;;7.58;65.30;101592.59;2066003;28;47362;-63
2023/01/21 01:32:39;;;;;;;;;9.75;9.75;;;;;7.58;65.22;101589.06;2067267;28;46464;-64
2023/01/21 01:33:40;;;;;;;;;10.50;10.00;;;;;7.57;65.01;101596.13;2065529;28;46275;-64
2023/01/21 01:34:41;;;;;;;;;10.75;10.75;;;;;7.56;65.06;101597.00;2077028;28;46525;-64
2023/01/21 01:35:45;;;;;;;;;10.00;9.00;;;;;7.55;64.99;101592.59;2080643;27;46665;-63
2023/01/21 01:36:47;;;;;;;;;10.60;10.40;;;;;7.55;65.00;101600.50;2074186;27;45588;-63
2023/01/21 01:37:48;;;;;;;;;12.20;12.20;;;;;7.56;65.08;101604.03;2107822;27;46947;-63
2023/01/21 01:38:48;;;;;;;;;10.75;10.25;;;;;7.53;64.91;101594.34;2103877;28;46365;-62
2023/01/21 01:39:49;;;;;;;;;14.00;12.75;;;;;7.52;64.78;101600.50;2084495;27;45718;-64
2023/01/21 01:40:51;;;;;;;;;12.00;12.00;;;;;7.51;64.88;101605.78;2088459;27;46786;-64
2023/01/21 01:41:52;;;;;;;;;11.00;11.00;;;;;7.51;64.84;101603.16;2068946;27;46365;-62
2023/01/21 01:42:52;;;;;;;;;11.00;11.00;;;;;7.49;64.94;101608.38;2084558;27;46467;-63
2023/01/21 01:43:57;;;;;;;;;12.25;12.00;;;;;7.50;65.02;101615.47;2066181;28;46927;-64
2023/01/21 01:45:01;;;;;;;;;12.00;10.40;;;;;7.50;64.68;101618.09;2065818;27;46123;-63
2023/01/21 01:46:02;;;;;;;;;13.80;13.80;;;;;7.50;64.70;101612.81;2085463;27;46363;-62
2023/01/21 01:47:03;;;;;;;;;12.50;11.00;;;;;7.51;64.47;101624.28;2076461;27;46662;-63
2023/01/21 01:48:05;;;;;;;;;16.80;14.20;;;;;7.49;64.43;101618.94;2078334;27;46818;-63
2023/01/21 01:49:13;;;;;;;;;13.00;12.00;;;;;7.49;64.45;101629.53;2088153;27;46807;-64
2023/01/21 01:50:18;;;;;;;;;12.80;12.80;;;;;7.49;64.43;101633.91;2063723;27;46630;-64
2023/01/21 01:51:22;;;;;;;;;17.60;16.40;;;;;7.48;64.22;101633.03;2079056;27;45520;-64
2023/01/21 01:52:23;;;;;;;;;13.00;13.00;;;;;7.48;64.31;101635.69;2082535;27;46652;-62
2023/01/21 01:53:24;;;;;;;;;12.00;12.00;;;;;7.48;64.18;101634.78;2070461;27;46059;-64
2023/01/21 01:54:34;;;;;;;;;10.20;10.00;;;;;7.47;64.22;101636.56;2071355;27;46688;-62
2023/01/21 01:55:36;;;;;;;;;11.00;11.00;;;;;7.46;64.04;101640.06;2066239;27;46667;-63
2023/01/21 01:56:41;;;;;;;;;10.20;10.20;;;;;7.45;63.74;101642.72;2070201;28;46628;-63
2023/01/21 01:57:46;;;;;;;;;10.40;8.40;;;;;7.42;64.03;101638.31;2101623;27;46789;-63
2023/01/21 01:58:48;;;;;;;;;12.40;12.40;;;;;7.41;64.00;101639.19;2085003;27;46459;-63
2023/01/21 01:59:49;;;;;;;;;12.00;11.60;;;;;7.42;64.07;101640.94;2089885;27;47627;-63
2023/01/21 02:00:50;;;;;;;;;15.00;12.20;;;;;7.42;63.81;101640.94;2100487;27;46729;-62
2023/01/21 02:01:50;;;;;;;;;10.75;10.75;;;;;7.42;63.78;101645.34;2072115;27;45604;-62
2023/01/21 02:04:19;;;;;;;;;12.80;12.00;;;;;7.41;63.01;101643.56;2067946;27;45540;-62
2023/01/21 02:05:19;;;;;;;;;9.80;9.80;;;;;7.40;63.02;101645.34;2070100;27;45968;-62
2023/01/21 02:06:19;;;;;;;;;12.50;11.00;;;;;7.40;62.86;101647.97;2070769;28;45700;-62
2023/01/21 02:07:22;;;;;;;;;12.50;12.50;;;;;7.37;63.04;101648.84;2071084;27;47274;-61
2023/01/21 02:08:26;;;;;;;;;11.40;11.40;;;;;7.38;62.75;101653.25;2071720;27;45883;-62
2023/01/21 02:09:28;;;;;;;;;9.80;9.80;;;;;7.36;62.99;101649.69;2071611;28;46069;-61
2023/01/21 02:10:30;;;;;;;;;10.40;10.40;;;;;7.36;62.68;101652.31;2064113;28;46633;-64
2023/01/21 02:11:31;;;;;;;;;10.80;8.60;;;;;7.36;62.61;101654.09;2067855;27;46606;-62
2023/01/21 02:12:32;;;;;;;;;10.75;10.75;;;;;7.36;62.78;101651.44;2072579;27;46635;-62
2023/01/21 02:13:33;;;;;;;;;15.00;12.20;;;;;7.37;62.92;101658.53;2077369;27;46635;-62
2023/01/21 02:14:41;;;;;;;;;10.00;10.00;;;;;7.37;62.97;101662.03;2072054;28;46801;-63
2023/01/21 02:15:56;;;;;;;;;12.20;12.20;;;;;7.38;63.00;101662.94;2070810;28;46274;-62
2023/01/21 02:17:02;;;;;;;;;11.80;11.80;;;;;7.39;62.98;101664.69;2078097;27;45770;-62
2023/01/21 02:18:26;;;;;;;;;14.20;13.40;;;;;7.38;63.08;101669.09;2065431;27;46728;-62
2023/01/21 02:19:50;;;;;;;;;19.00;15.80;;;;;7.40;63.08;101668.22;2062023;28;46634;-63
2023/01/21 02:21:13;;;;;;;;;14.80;14.80;;;;;7.39;63.02;101675.25;2063006;28;46343;-62
2023/01/21 02:22:35;;;;;;;;;13.60;13.60;;;;;7.38;63.08;101677.03;2065016;28;46887;-62
2023/01/21 02:24:14;;;;;;;;;10.20;10.20;;;;;7.36;62.76;101672.56;2063511;28;46643;-63
2023/01/21 02:25:56;;;;;;;;;11.00;11.00;;;;;7.33;62.97;101678.72;2062810;28;46958;-62
2023/01/21 02:27:33;;;;;;;;;15.20;14.40;;;;;7.31;62.65;101683.13;2030674;28;45510;-62
2023/01/21 02:28:36;;;;;;;;;11.60;10.80;;;;;7.28;62.29;101688.38;2006843;29;46761;-62
2023/01/21 02:29:52;;;;;;;;;11.40;11.00;;;;;7.27;62.27;101686.63;2006759;29;46883;-62
2023/01/21 02:31:39;;;;;;;;;14.00;14.00;;;;;7.26;61.86;101694.53;2005605;29;46606;-63
2023/01/21 02:33:01;;;;;;;;;10.40;10.40;;;;;7.23;62.06;101708.56;2005318;29;45729;-64
2023/01/21 02:34:42;;;;;;;;;11.00;9.00;;;;;7.20;61.92;101710.31;2006494;29;46533;-63
2023/01/21 02:36:03;;;;;;;;;10.40;10.40;;;;;7.18;62.23;101718.22;2007006;29;46025;-63
2023/01/21 02:37:11;;;;;;;;;9.80;9.20;;;;;7.16;62.13;101721.72;2005046;29;46551;-63
2023/01/21 02:38:43;;;;;;;;;10.00;10.00;;;;;7.12;61.81;101723.47;1998828;29;46386;-62
2023/01/21 02:40:05;;;;;;;;;9.75;9.75;;;;;7.08;61.60;101725.16;1995640;29;46658;-63
2023/01/21 02:41:08;;;;;;;;;12.40;11.80;;;;;7.05;61.75;101724.25;2002036;29;46820;-63
2023/01/21 02:42:22;;;;;;;;;12.40;10.60;;;;;7.01;61.49;101725.13;2004799;29;45220;-62
2023/01/21 02:43:39;;;;;;;;;9.00;9.00;;;;;6.97;61.84;101729.47;1995177;29;46843;-61
2023/01/21 02:44:45;;;;;;;;;13.20;10.20;;;;;6.93;61.36;101732.94;1998853;29;46681;-63
2023/01/21 02:45:52;;;;;;;;;9.80;9.20;;;;;6.91;61.30;101747.00;1999093;29;46996;-62
2023/01/21 02:47:03;;;;;;;;;10.20;10.20;;;;;6.87;61.11;101748.75;1999202;29;46769;-62
2023/01/21 02:48:14;;;;;;;;;11.00;11.00;;;;;6.84;61.56;101735.50;1999273;29;45802;-62
2023/01/21 02:49:32;;;;;;;;;15.20;15.20;;;;;6.82;61.73;101744.25;1999065;29;45899;-61
2023/01/21 02:50:36;;;;;;;;;13.00;13.00;;;;;6.81;61.71;101745.13;1993357;29;46640;-61
2023/01/21 02:51:36;;;;;;;;;13.80;12.00;;;;;6.80;61.54;101752.16;1998723;29;46448;-61
2023/01/21 02:52:37;;;;;;;;;12.75;12.50;;;;;6.79;61.60;101760.97;1999288;29;46033;-61
2023/01/21 02:53:37;;;;;;;;;10.50;10.50;;;;;6.78;61.73;101752.16;1999247;29;46390;-60
2023/01/21 02:54:38;;;;;;;;;11.75;11.50;;;;;6.76;61.41;101753.00;1999029;29;46186;-62
2023/01/21 02:55:38;;;;;;;;;13.50;12.00;;;;;6.75;61.26;101753.88;1999569;29;46701;-62
2023/01/21 02:56:38;;;;;;;;;16.75;15.50;;;;;6.74;61.50;101757.41;1999341;29;46724;-61
2023/01/21 02:57:47;;;;;;;;;13.25;13.25;;;;;6.73;61.35;101759.16;1997957;28;46528;-61
2023/01/21 02:58:52;;;;;;;;;13.80;13.60;;;;;6.72;61.37;101769.66;2002853;28;46425;-62
2023/01/21 02:59:55;;;;;;;;;16.00;14.00;;;;;6.69;61.40;101757.31;2002120;28;46458;-62
2023/01/21 03:01:04;;;;;;;;;13.20;13.20;;;;;6.69;61.08;101761.72;1989590;29;46273;-63
2023/01/21 03:02:16;;;;;;;;;15.40;13.60;;;;;6.68;61.38;101775.78;1995038;29;46407;-62
2023/01/21 03:03:35;;;;;;;;;15.80;15.80;;;;;6.65;61.23;101775.75;2002930;28;46682;-61
2023/01/21 03:05:17;;;;;;;;;16.40;14.60;;;;;6.64;61.48;101768.72;2013301;29;46631;-61
2023/01/21 03:06:39;;;;;;;;;14.80;13.20;;;;;6.62;61.23;101775.72;2025428;28;45187;-62
2023/01/21 03:07:58;;;;;;;;;16.40;16.40;;;;;6.60;60.93;101777.44;2046111;28;46981;-61
2023/01/21 03:09:09;;;;;;;;;16.40;16.20;;;;;6.57;61.04;101778.28;2046757;28;46042;-61
2023/01/21 03:10:18;;;;;;;;;15.40;13.20;;;;;6.55;61.13;101794.97;2050749;28;46400;-62
2023/01/21 03:11:21;;;;;;;;;16.60;15.40;;;;;6.52;61.03;101784.38;2045790;28;45843;-62
2023/01/21 03:12:39;;;;;;;;;14.00;12.80;;;;;6.48;61.39;101787.00;2045572;28;46427;-63
2023/01/21 03:16:57;;;;;;;;;15.40;14.60;;;;;6.40;60.55;101804.47;2046224;28;46416;-64
2023/01/21 03:18:11;;;;;;;;;17.20;15.40;;;;;6.38;60.45;101806.19;2069393;28;46710;-62
2023/01/21 03:19:14;;;;;;;;;14.00;14.00;;;;;6.35;59.98;101806.16;2067707;28;46341;-62
2023/01/21 03:20:23;;;;;;;;;13.60;13.60;;;;;6.33;59.90;101802.59;2069905;28;45917;-63
2023/01/21 03:21:27;;;;;;;;;2.60;0.60;;;;;6.32;60.26;101808.75;2070427;28;46555;-62
2023/01/21 03:22:32;;;;;;;;;15.80;15.80;;;;;6.30;59.93;101810.47;2069444;28;46503;-63
2023/01/21 03:23:37;;;;;;;;;15.40;14.80;;;;;6.30;59.54;101805.19;2069952;28;46511;-62
2023/01/21 03:24:41;;;;;;;;;13.80;13.40;;;;;6.28;60.24;101814.84;2068132;28;46855;-63
2023/01/21 03:25:43;;;;;;;;;15.80;15.20;;;;;6.26;59.57;101813.94;2069086;28;46758;-63
2023/01/21 03:26:49;;;;;;;;;12.20;12.20;;;;;6.25;59.68;101822.72;2070175;28;46676;-65
2023/01/21 03:27:51;;;;;;;;;16.20;16.20;;;;;6.23;59.53;101819.19;2074263;28;46912;-63
2023/01/21 03:28:56;;;;;;;;;15.20;15.20;;;;;6.20;59.18;101821.75;2063136;28;46473;-63
2023/01/21 03:30:02;;;;;;;;;9.80;9.00;;;;;6.17;59.68;101830.50;2064445;28;46112;-63
2023/01/21 03:31:11;;;;;;;;;16.60;14.20;;;;;6.17;59.67;101824.34;2070212;28;46104;-63
2023/01/21 03:32:15;;;;;;;;;14.40;13.80;;;;;6.17;59.57;101829.63;2070137;28;46450;-63
2023/01/21 03:33:17;;;;;;;;;17.40;13.60;;;;;6.15;59.40;101829.59;2069746;28;45749;-62
2023/01/21 03:34:21;;;;;;;;;18.80;16.60;;;;;6.13;59.76;101828.72;2070413;28;45912;-63
2023/01/21 03:35:27;;;;;;;;;16.60;15.40;;;;;6.12;59.37;101836.59;2070814;28;46278;-62
2023/01/21 03:36:50;;;;;;;;;17.00;14.20;;;;;6.11;59.21;101843.63;2069843;28;46670;-62
2023/01/21 03:38:00;;;;;;;;;16.00;15.00;;;;;6.13;59.42;101854.19;2071274;28;45064;-61
2023/01/21 03:39:08;;;;;;;;;20.40;19.20;;;;;6.13;58.65;101838.38;2071418;28;47630;-62
2023/01/21 03:40:26;;;;;;;;;18.00;18.00;;;;;6.12;59.40;101844.50;2071895;28;45985;-62
2023/01/21 03:41:33;;;;;;;;;13.00;13.00;;;;;6.10;58.54;101846.22;2071092;28;46701;-62
2023/01/21 03:42:33;;;;;;;;;14.00;14.00;;;;;6.10;58.54;101846.22;2071401;28;46814;-62
2023/01/21 03:43:34;;;;;;;;;15.00;15.00;;;;;6.09;58.87;101842.69;2071750;28;46254;-64
2023/01/21 03:44:35;;;;;;;;;20.00;20.00;;;;;6.08;58.61;101846.19;2073215;27;45771;-63
2023/01/21 03:45:49;;;;;;;;;16.20;12.80;;;;;6.07;58.65;101849.69;2081595;27;45786;-64
2023/01/21 03:47:16;;;;;;;;;15.60;14.00;;;;;6.05;58.91;101859.31;2102371;28;46377;-63
2023/01/21 03:48:31;;;;;;;;;16.60;15.60;;;;;6.04;58.85;101860.19;2082147;28;46396;-63
2023/01/21 03:49:42;;;;;;;;;18.60;17.60;;;;;6.04;58.97;101847.00;2070912;27;47415;-64
2023/01/21 03:50:50;;;;;;;;;20.60;17.40;;;;;6.03;58.66;101854.91;2075118;27;46327;-63
2023/01/21 03:51:55;;;;;;;;;15.20;15.20;;;;;6.02;59.04;101851.38;2053425;28;45920;-64
2023/01/21 03:52:55;;;;;;;;;23.00;21.20;;;;;6.03;58.77;101854.91;2046732;28;46441;-63
2023/01/21 03:53:57;;;;;;;;;18.50;16.00;;;;;6.03;58.76;101857.53;2072021;27;46756;-64
2023/01/21 03:54:58;;;;;;;;;19.80;16.20;;;;;6.03;58.98;101854.91;2066936;28;46681;-64
2023/01/21 03:55:59;;;;;;;;;15.75;15.00;;;;;6.01;58.97;101859.25;2063512;28;46818;-64
2023/01/21 03:56:59;;;;;;;;;19.25;18.00;;;;;6.01;59.18;101861.91;2071411;27;45740;-63
2023/01/21 03:57:59;;;;;;;;;17.50;17.50;;;;;5.99;59.04;101855.72;2076908;27;45900;-63
2023/01/21 03:58:59;;;;;;;;;19.75;16.75;;;;;6.01;59.02;101861.91;2069717;27;46575;-62
2023/01/21 04:00:00;;;;;;;;;16.50;15.25;;;;;6.01;59.12;101854.00;2070251;27;46728;-64
2023/01/21 04:01:00;;;;;;;;;22.50;21.25;;;;;6.03;59.40;101860.16;2104414;27;46457;-62
2023/01/21 04:02:00;;;;;;;;;21.00;20.25;;;;;6.03;59.14;101858.41;2085803;27;46283;-64
2023/01/21 04:03:01;;;;;;;;;20.75;20.75;;;;;6.04;59.10;101861.94;2102399;27;45347;-62
2023/01/21 04:04:01;;;;;;;;;18.75;17.75;;;;;6.05;59.27;101858.44;2103971;27;46254;-63
2023/01/21 04:05:02;;;;;;;;;18.50;17.25;;;;;6.06;59.32;101858.47;2064921;27;47111;-63
2023/01/21 04:06:02;;;;;;;;;21.25;20.00;;;;;6.08;59.34;101869.00;2068871;28;46390;-64
2023/01/21 04:07:03;;;;;;;;;24.75;21.75;;;;;6.10;59.13;101870.84;2094731;27;46792;-63
2023/01/21 04:08:03;;;;;;;;;21.25;21.25;;;;;6.11;58.65;101858.53;2073977;27;46509;-65
2023/01/21 04:09:05;;;;;;;;;20.00;19.50;;;;;6.12;58.81;101866.47;2105481;27;46923;-63
2023/01/21 04:10:07;;;;;;;;;21.40;21.00;;;;;6.13;59.14;101867.34;2086676;27;46389;-63
2023/01/21 04:11:07;;;;;;;;;18.80;18.20;;;;;6.13;59.28;101870.88;2086751;27;46433;-63
2023/01/21 04:12:07;;;;;;;;;20.00;20.00;;;;;6.15;59.15;101868.25;2107129;27;46439;-63
2023/01/21 04:13:08;;;;;;;;;21.25;21.25;;;;;6.14;58.48;101867.38;2080888;27;46804;-63
2023/01/21 04:14:08;;;;;;;;;20.00;17.75;;;;;6.13;58.84;101873.50;2097218;27;46797;-64
2023/01/21 04:15:09;;;;;;;;;22.50;21.75;;;;;6.14;58.74;101870.00;2095359;27;46929;-63
2023/01/21 04:16:09;;;;;;;;;19.75;19.75;;;;;6.14;58.43;101874.41;2081624;27;46566;-64
2023/01/21 04:17:10;;;;;;;;;19.25;19.25;;;;;6.13;58.60;101878.78;2105840;27;46387;-63
2023/01/21 04:18:10;;;;;;;;;19.75;18.25;;;;;6.14;58.44;101880.56;2073990;27;46858;-63
2023/01/21 04:19:10;;;;;;;;;22.00;20.00;;;;;6.14;58.56;101877.91;2063593;28;45552;-63
2023/01/21 04:20:11;;;;;;;;;24.50;21.75;;;;;6.15;59.01;101884.94;2098513;27;46190;-63
2023/01/21 04:21:11;;;;;;;;;21.50;20.50;;;;;6.15;58.15;101887.59;2076373;27;46915;-64
2023/01/21 04:22:12;;;;;;;;;23.25;20.25;;;;;6.13;58.75;101886.69;2074416;27;46608;-64
2023/01/21 04:23:12;;;;;;;;;22.00;21.00;;;;;6.14;58.53;101893.72;2088553;27;46483;-63
2023/01/21 04:24:12;;;;;;;;;21.50;20.00;;;;;6.12;58.37;101891.94;2076091;27;46059;-63
2023/01/21 04:25:13;;;;;;;;;18.50;18.50;;;;;6.11;58.70;101890.16;2094602;27;46694;-64
2023/01/21 04:26:15;;;;;;;;;21.50;21.25;;;;;6.10;58.47;101891.91;2068780;28;44958;-64
2023/01/21 04:27:15;;;;;;;;;20.60;19.80;;;;;6.09;58.84;101891.88;2061098;27;46102;-62
2023/01/21 04:28:16;;;;;;;;;25.75;21.75;;;;;6.08;58.61;101892.72;2092288;27;45790;-62
2023/01/21 04:29:17;;;;;;;;;21.60;21.60;;;;;6.06;58.44;101890.06;2068994;27;46636;-62
2023/01/21 04:30:17;;;;;;;;;23.50;22.00;;;;;6.04;58.64;101889.16;2096597;27;47114;-61
2023/01/21 04:31:17;;;;;;;;;24.25;20.25;;;;;6.02;58.53;101888.28;2084276;27;46644;-61
2023/01/21 04:32:18;;;;;;;;;28.50;26.00;;;;;6.01;58.64;101896.16;2076171;27;46303;-61
2023/01/21 04:33:18;;;;;;;;;30.00;26.25;;;;;6.00;58.45;101890.00;2072149;27;46185;-61
2023/01/21 04:34:18;;;;;;;;;22.25;20.75;;;;;5.99;58.54;101889.97;2075578;27;45767;-61
2023/01/21 04:35:19;;;;;;;;;22.25;22.25;;;;;5.97;58.57;101899.56;2087278;27;45910;-62
2023/01/21 04:36:19;;;;;;;;;22.50;20.75;;;;;5.96;58.67;101895.16;2097179;27;46830;-62
2023/01/21 04:37:20;;;;;;;;;23.50;21.50;;;;;5.96;58.36;101895.16;2071416;27;46776;-61
2023/01/21 04:38:20;;;;;;;;;25.25;24.25;;;;;5.95;58.86;101891.66;2102180;27;46277;-62
2023/01/21 04:39:20;;;;;;;;;25.50;21.25;;;;;5.96;58.92;101895.16;2082140;27;46619;-62
2023/01/21 04:40:21;;;;;;;;;27.00;24.75;;;;;5.96;58.40;101895.16;2081490;27;47002;-62
2023/01/21 04:41:21;;;;;;;;;24.00;21.00;;;;;5.95;58.68;101893.41;2096371;27;46538;-61
2023/01/21 04:42:21;;;;;;;;;22.00;21.00;;;;;5.94;58.71;101895.16;2078999;27;45784;-63
2023/01/21 04:43:21;;;;;;;;;22.75;21.75;;;;;5.92;58.74;101894.25;2097882;27;46347;-63
2023/01/21 04:44:22;;;;;;;;;23.25;23.00;;;;;5.91;58.74;101889.84;2091131;27;46287;-62
2023/01/21 04:45:22;;;;;;;;;22.00;22.00;;;;;5.90;58.41;101893.34;2074944;27;45552;-63
2023/01/21 04:46:22;;;;;;;;;26.25;22.75;;;;;5.89;58.17;101891.53;2104671;27;46417;-63
2023/01/21 04:47:23;;;;;;;;;26.25;23.75;;;;;5.86;58.13;101886.22;2086649;27;46638;-63
2023/01/21 04:48:23;;;;;;;;;20.50;20.00;;;;;5.84;58.02;101894.09;2089869;27;46401;-62
2023/01/21 04:49:24;;;;;;;;;22.50;20.75;;;;;5.83;58.19;101894.94;2104335;27;46297;-63
2023/01/21 04:50:24;;;;;;;;;22.00;19.25;;;;;5.82;58.32;101895.81;2070016;28;46039;-63
2023/01/21 04:51:24;;;;;;;;;18.50;17.25;;;;;5.82;58.37;101892.28;2073646;28;46220;-62
2023/01/21 04:52:25;;;;;;;;;21.25;18.50;;;;;5.80;58.69;101892.25;2094569;27;46198;-62
2023/01/21 04:53:25;;;;;;;;;24.75;23.25;;;;;5.80;58.69;101894.00;2081645;27;46324;-62
2023/01/21 04:54:25;;;;;;;;;19.75;18.50;;;;;5.80;58.30;101889.63;2070138;27;46449;-63
2023/01/21 04:55:25;;;;;;;;;20.00;18.25;;;;;5.80;58.48;101900.16;2054326;28;47197;-62
2023/01/21 04:56:26;;;;;;;;;18.50;17.50;;;;;5.80;58.59;101894.00;2058518;28;45932;-62
2023/01/21 04:57:26;;;;;;;;;22.25;20.50;;;;;5.78;58.41;101903.63;2089886;28;45964;-62
2023/01/21 04:58:26;;;;;;;;;21.75;18.75;;;;;5.77;58.63;101896.59;2067870;28;45860;-63
2023/01/21 04:59:27;;;;;;;;;26.50;22.00;;;;;5.75;58.30;101899.22;2066317;28;46272;-63
2023/01/21 05:00:27;;;;;;;;;20.50;19.25;;;;;5.75;58.24;101903.59;2085145;27;45583;-64
2023/01/21 05:01:27;;;;;;;;;24.50;18.75;;;;;5.72;58.65;101899.16;2083084;27;46791;-63